sensor_id;sensor_type;location;lat;lon;timestamp;temperature;humidity
2757;DHT22;1386;50.862;6.494;2024-01-25T00:00:17;8.80;99.90
2757;DHT22;1386;50.862;6.494;2024-01-25T00:02:44;8.80;99.90
2757;DHT22;1386;50.862;6.494;2024-01-25T00:05:11;8.90;99.90
2757;DHT22;1386;50.862;6.494;2024-01-25T00:07:45;8.80;99.90
2757;DHT22;1386;50.862;6.494;2024-01-25T00:10:14;8.80;99.90
2757;DHT22;1386;50.862;6.494;2024-01-25T00:12:41;8.90;99.90
2757;DHT22;1386;50.862;6.494;2024-01-25T00:15:08;8.90;99.90
2757;DHT22;1386;50.862;6.494;2024-01-25T00:17:41;8.80;99.90
2757;DHT22;1386;50.862;6.494;2024-01-25T00:20:09;8.90;99.90
2757;DHT22;1386;50.862;6.494;2024-01-25T00:22:36;8.90;99.90
2757;DHT22;1386;50.862;6.494;2024-01-25T00:25:04;8.80;99.90
2757;DHT22;1386;50.862;6.494;2024-01-25T00:27:33;8.80;99.90
2757;DHT22;1386;50.862;6.494;2024-01-25T00:30:03;8.80;99.90
2757;DHT22;1386;50.862;6.494;2024-01-25T00:32:30;8.80;99.90
2757;DHT22;1386;50.862;6.494;2024-01-25T00:34:58;8.80;99.90
2757;DHT22;1386;50.862;6.494;2024-01-25T00:37:25;8.80;99.90
2757;DHT22;1386;50.862;6.494;2024-01-25T00:39:53;8.80;99.90
2757;DHT22;1386;50.862;6.494;2024-01-25T00:42:22;8.70;99.90
2757;DHT22;1386;50.862;6.494;2024-01-25T00:44:51;8.70;99.90
2757;DHT22;1386;50.862;6.494;2024-01-25T00:47:19;8.70;99.90
2757;DHT22;1386;50.862;6.494;2024-01-25T00:49:46;8.70;99.90
2757;DHT22;1386;50.862;6.494;2024-01-25T00:52:13;8.70;99.90
2757;DHT22;1386;50.862;6.494;2024-01-25T00:54:41;8.70;99.90
2757;DHT22;1386;50.862;6.494;2024-01-25T00:57:09;8.60;99.90
2757;DHT22;1386;50.862;6.494;2024-01-25T00:59:36;8.60;99.90
2757;DHT22;1386;50.862;6.494;2024-01-25T01:02:05;8.70;99.90
2757;DHT22;1386;50.862;6.494;2024-01-25T01:04:35;8.70;99.90
2757;DHT22;1386;50.862;6.494;2024-01-25T01:07:03;8.70;99.90
2757;DHT22;1386;50.862;6.494;2024-01-25T01:09:30;8.60;99.90
2757;DHT22;1386;50.862;6.494;2024-01-25T01:11:57;8.60;99.90
2757;DHT22;1386;50.862;6.494;2024-01-25T01:14:23;8.60;99.90
2757;DHT22;1386;50.862;6.494;2024-01-25T01:16:50;8.60;99.90
2757;DHT22;1386;50.862;6.494;2024-01-25T01:19:18;8.60;99.90
2757;DHT22;1386;50.862;6.494;2024-01-25T01:21:45;8.60;99.90
2757;DHT22;1386;50.862;6.494;2024-01-25T01:24:12;8.60;99.90
2757;DHT22;1386;50.862;6.494;2024-01-25T01:26:39;8.50;99.90
2757;DHT22;1386;50.862;6.494;2024-01-25T01:29:07;8.50;99.90
2757;DHT22;1386;50.862;6.494;2024-01-25T01:31:34;8.50;99.90
2757;DHT22;1386;50.862;6.494;2024-01-25T01:34:01;8.40;99.90
2757;DHT22;1386;50.862;6.494;2024-01-25T01:36:29;8.40;99.90
2757;DHT22;1386;50.862;6.494;2024-01-25T01:38:56;8.40;99.90
2757;DHT22;1386;50.862;6.494;2024-01-25T01:41:23;8.30;99.90
2757;DHT22;1386;50.862;6.494;2024-01-25T01:43:52;8.30;99.90
2757;DHT22;1386;50.862;6.494;2024-01-25T01:46:26;8.30;99.90
2757;DHT22;1386;50.862;6.494;2024-01-25T01:48:54;8.30;99.90
2757;DHT22;1386;50.862;6.494;2024-01-25T01:51:21;8.30;99.90
2757;DHT22;1386;50.862;6.494;2024-01-25T01:53:50;8.20;99.90
2757;DHT22;1386;50.862;6.494;2024-01-25T01:56:17;8.30;99.90
2757;DHT22;1386;50.862;6.494;2024-01-25T01:58:45;8.20;99.90
2757;DHT22;1386;50.862;6.494;2024-01-25T02:01:13;8.30;99.90
2757;DHT22;1386;50.862;6.494;2024-01-25T02:03:40;8.30;99.90
2757;DHT22;1386;50.862;6.494;2024-01-25T02:06:07;8.20;99.90
2757;DHT22;1386;50.862;6.494;2024-01-25T02:08:34;8.20;99.90
2757;DHT22;1386;50.862;6.494;2024-01-25T02:11:04;8.20;99.90
2757;DHT22;1386;50.862;6.494;2024-01-25T02:13:31;8.20;99.90
2757;DHT22;1386;50.862;6.494;2024-01-25T02:15:57;8.20;99.90
2757;DHT22;1386;50.862;6.494;2024-01-25T02:18:24;8.20;99.90
2757;DHT22;1386;50.862;6.494;2024-01-25T02:20:51;8.20;99.90
2757;DHT22;1386;50.862;6.494;2024-01-25T02:23:19;8.10;99.90
2757;DHT22;1386;50.862;6.494;2024-01-25T02:25:46;8.10;99.90
2757;DHT22;1386;50.862;6.494;2024-01-25T02:28:13;8.10;99.90
2757;DHT22;1386;50.862;6.494;2024-01-25T02:30:40;8.10;99.90
2757;DHT22;1386;50.862;6.494;2024-01-25T02:33:07;8.10;99.90
2757;DHT22;1386;50.862;6.494;2024-01-25T02:35:33;8.10;99.90
2757;DHT22;1386;50.862;6.494;2024-01-25T02:38:00;8.00;99.90
2757;DHT22;1386;50.862;6.494;2024-01-25T02:40:29;8.00;99.90
2757;DHT22;1386;50.862;6.494;2024-01-25T02:42:55;8.00;99.90
2757;DHT22;1386;50.862;6.494;2024-01-25T02:45:23;8.00;99.90
2757;DHT22;1386;50.862;6.494;2024-01-25T02:47:50;8.00;99.90
2757;DHT22;1386;50.862;6.494;2024-01-25T02:50:17;8.00;99.90
2757;DHT22;1386;50.862;6.494;2024-01-25T02:52:44;7.90;99.90
2757;DHT22;1386;50.862;6.494;2024-01-25T02:55:10;7.90;99.90
2757;DHT22;1386;50.862;6.494;2024-01-25T02:57:38;7.90;99.90
2757;DHT22;1386;50.862;6.494;2024-01-25T03:00:07;7.80;99.90
2757;DHT22;1386;50.862;6.494;2024-01-25T03:02:34;7.80;99.90
2757;DHT22;1386;50.862;6.494;2024-01-25T03:05:01;7.80;99.90
2757;DHT22;1386;50.862;6.494;2024-01-25T03:07:28;7.80;99.90
2757;DHT22;1386;50.862;6.494;2024-01-25T03:09:55;7.80;99.90
2757;DHT22;1386;50.862;6.494;2024-01-25T03:12:21;7.80;99.90
2757;DHT22;1386;50.862;6.494;2024-01-25T03:14:50;7.80;99.90
2757;DHT22;1386;50.862;6.494;2024-01-25T03:17:17;7.80;99.90
2757;DHT22;1386;50.862;6.494;2024-01-25T03:19:44;7.80;99.90
2757;DHT22;1386;50.862;6.494;2024-01-25T03:22:10;7.80;99.90
2757;DHT22;1386;50.862;6.494;2024-01-25T03:24:37;7.80;99.90
2757;DHT22;1386;50.862;6.494;2024-01-25T03:27:05;7.80;99.90
2757;DHT22;1386;50.862;6.494;2024-01-25T03:29:40;7.80;99.90
2757;DHT22;1386;50.862;6.494;2024-01-25T03:32:08;7.80;99.90
2757;DHT22;1386;50.862;6.494;2024-01-25T03:34:35;7.80;99.90
2757;DHT22;1386;50.862;6.494;2024-01-25T03:37:03;7.80;99.90
2757;DHT22;1386;50.862;6.494;2024-01-25T03:39:30;7.80;99.90
2757;DHT22;1386;50.862;6.494;2024-01-25T03:41:56;7.80;99.90
2757;DHT22;1386;50.862;6.494;2024-01-25T03:44:23;7.90;99.90
2757;DHT22;1386;50.862;6.494;2024-01-25T03:46:50;7.90;99.90
2757;DHT22;1386;50.862;6.494;2024-01-25T03:49:18;7.90;99.90
2757;DHT22;1386;50.862;6.494;2024-01-25T03:51:45;7.90;99.90
2757;DHT22;1386;50.862;6.494;2024-01-25T03:54:12;7.80;99.90
2757;DHT22;1386;50.862;6.494;2024-01-25T03:56:39;7.80;99.90
2757;DHT22;1386;50.862;6.494;2024-01-25T03:59:06;7.80;99.90
2757;DHT22;1386;50.862;6.494;2024-01-25T04:01:42;7.80;99.90
2757;DHT22;1386;50.862;6.494;2024-01-25T04:04:09;7.80;99.90
2757;DHT22;1386;50.862;6.494;2024-01-25T04:06:38;7.70;99.90
2757;DHT22;1386;50.862;6.494;2024-01-25T04:09:05;7.70;99.90
2757;DHT22;1386;50.862;6.494;2024-01-25T04:11:32;7.60;99.90
2757;DHT22;1386;50.862;6.494;2024-01-25T04:13:59;7.60;99.90
2757;DHT22;1386;50.862;6.494;2024-01-25T04:16:26;7.60;99.90
2757;DHT22;1386;50.862;6.494;2024-01-25T04:18:53;7.50;99.90
2757;DHT22;1386;50.862;6.494;2024-01-25T04:21:20;7.50;99.90
2757;DHT22;1386;50.862;6.494;2024-01-25T04:23:48;7.50;99.90
2757;DHT22;1386;50.862;6.494;2024-01-25T04:26:15;7.50;99.90
2757;DHT22;1386;50.862;6.494;2024-01-25T04:28:42;7.50;99.90
2757;DHT22;1386;50.862;6.494;2024-01-25T04:31:09;7.40;99.90
2757;DHT22;1386;50.862;6.494;2024-01-25T04:33:37;7.40;99.90
2757;DHT22;1386;50.862;6.494;2024-01-25T04:36:05;7.40;99.90
2757;DHT22;1386;50.862;6.494;2024-01-25T04:38:31;7.40;99.90
2757;DHT22;1386;50.862;6.494;2024-01-25T04:41:00;7.30;99.90
2757;DHT22;1386;50.862;6.494;2024-01-25T04:43:26;7.30;99.90
2757;DHT22;1386;50.862;6.494;2024-01-25T04:45:53;7.30;99.90
2757;DHT22;1386;50.862;6.494;2024-01-25T04:48:20;7.20;99.90
2757;DHT22;1386;50.862;6.494;2024-01-25T04:50:47;7.20;99.90
2757;DHT22;1386;50.862;6.494;2024-01-25T04:53:14;7.20;99.90
2757;DHT22;1386;50.862;6.494;2024-01-25T04:55:40;7.20;99.90
2757;DHT22;1386;50.862;6.494;2024-01-25T04:58:09;7.20;99.90
2757;DHT22;1386;50.862;6.494;2024-01-25T05:00:36;7.10;99.90
2757;DHT22;1386;50.862;6.494;2024-01-25T05:03:05;7.10;99.90
2757;DHT22;1386;50.862;6.494;2024-01-25T05:05:32;7.10;99.90
2757;DHT22;1386;50.862;6.494;2024-01-25T05:07:59;7.00;99.90
2757;DHT22;1386;50.862;6.494;2024-01-25T05:10:26;7.00;99.90
2757;DHT22;1386;50.862;6.494;2024-01-25T05:12:53;6.90;99.90
2757;DHT22;1386;50.862;6.494;2024-01-25T05:15:21;6.90;99.90
2757;DHT22;1386;50.862;6.494;2024-01-25T05:17:48;6.80;99.90
2757;DHT22;1386;50.862;6.494;2024-01-25T05:20:14;6.80;99.90
2757;DHT22;1386;50.862;6.494;2024-01-25T05:22:43;6.70;99.90
2757;DHT22;1386;50.862;6.494;2024-01-25T05:25:11;6.70;99.90
2757;DHT22;1386;50.862;6.494;2024-01-25T05:27:38;6.70;99.90
2757;DHT22;1386;50.862;6.494;2024-01-25T05:30:06;6.60;99.90
2757;DHT22;1386;50.862;6.494;2024-01-25T05:32:37;6.60;99.90
2757;DHT22;1386;50.862;6.494;2024-01-25T05:35:04;6.60;99.90
2757;DHT22;1386;50.862;6.494;2024-01-25T05:37:31;6.60;99.90
2757;DHT22;1386;50.862;6.494;2024-01-25T05:39:59;6.50;99.90
2757;DHT22;1386;50.862;6.494;2024-01-25T05:42:25;6.50;99.90
2757;DHT22;1386;50.862;6.494;2024-01-25T05:44:52;6.50;99.90
2757;DHT22;1386;50.862;6.494;2024-01-25T05:47:19;6.40;99.90
2757;DHT22;1386;50.862;6.494;2024-01-25T05:49:47;6.40;99.90
2757;DHT22;1386;50.862;6.494;2024-01-25T05:52:15;6.40;99.90
2757;DHT22;1386;50.862;6.494;2024-01-25T05:54:42;6.40;99.90
2757;DHT22;1386;50.862;6.494;2024-01-25T05:57:09;6.40;99.90
2757;DHT22;1386;50.862;6.494;2024-01-25T05:59:36;6.30;99.90
2757;DHT22;1386;50.862;6.494;2024-01-25T06:02:03;6.30;99.90
2757;DHT22;1386;50.862;6.494;2024-01-25T06:04:30;6.30;99.90
2757;DHT22;1386;50.862;6.494;2024-01-25T06:06:59;6.20;99.90
2757;DHT22;1386;50.862;6.494;2024-01-25T06:09:25;6.20;99.90
2757;DHT22;1386;50.862;6.494;2024-01-25T06:11:53;6.20;99.90
2757;DHT22;1386;50.862;6.494;2024-01-25T06:14:20;6.10;99.90
2757;DHT22;1386;50.862;6.494;2024-01-25T06:16:46;6.20;99.90
2757;DHT22;1386;50.862;6.494;2024-01-25T06:19:13;6.20;99.90
2757;DHT22;1386;50.862;6.494;2024-01-25T06:21:40;6.10;99.90
2757;DHT22;1386;50.862;6.494;2024-01-25T06:24:08;6.10;99.90
2757;DHT22;1386;50.862;6.494;2024-01-25T06:26:35;6.10;99.90
2757;DHT22;1386;50.862;6.494;2024-01-25T06:29:02;6.20;99.90
2757;DHT22;1386;50.862;6.494;2024-01-25T06:31:29;6.20;99.90
2757;DHT22;1386;50.862;6.494;2024-01-25T06:33:56;6.20;99.90
2757;DHT22;1386;50.862;6.494;2024-01-25T06:36:22;6.10;99.90
2757;DHT22;1386;50.862;6.494;2024-01-25T06:38:49;6.20;99.90
2757;DHT22;1386;50.862;6.494;2024-01-25T06:41:17;6.20;99.90
2757;DHT22;1386;50.862;6.494;2024-01-25T06:43:44;6.10;99.90
2757;DHT22;1386;50.862;6.494;2024-01-25T06:46:11;6.10;99.90
2757;DHT22;1386;50.862;6.494;2024-01-25T06:48:38;6.10;99.90
2757;DHT22;1386;50.862;6.494;2024-01-25T06:51:05;6.00;99.90
2757;DHT22;1386;50.862;6.494;2024-01-25T06:53:31;6.10;99.90
2757;DHT22;1386;50.862;6.494;2024-01-25T06:55:58;6.10;99.90
2757;DHT22;1386;50.862;6.494;2024-01-25T06:58:27;6.10;99.90
2757;DHT22;1386;50.862;6.494;2024-01-25T07:00:53;6.10;99.90
2757;DHT22;1386;50.862;6.494;2024-01-25T07:03:20;6.00;99.90
2757;DHT22;1386;50.862;6.494;2024-01-25T07:05:47;6.00;99.90
2757;DHT22;1386;50.862;6.494;2024-01-25T07:08:14;6.00;99.90
2757;DHT22;1386;50.862;6.494;2024-01-25T07:10:41;6.00;99.90
2757;DHT22;1386;50.862;6.494;2024-01-25T07:13:08;6.00;99.90
2757;DHT22;1386;50.862;6.494;2024-01-25T07:15:41;6.20;99.90
2757;DHT22;1386;50.862;6.494;2024-01-25T07:18:08;6.60;99.90
2757;DHT22;1386;50.862;6.494;2024-01-25T07:20:59;7.00;99.90
2757;DHT22;1386;50.862;6.494;2024-01-25T07:44:00;6.20;99.90
2757;DHT22;1386;50.862;6.494;2024-01-25T07:46:27;6.20;99.90
2757;DHT22;1386;50.862;6.494;2024-01-25T07:48:54;6.10;99.90
2757;DHT22;1386;50.862;6.494;2024-01-25T07:51:20;6.10;99.90
2757;DHT22;1386;50.862;6.494;2024-01-25T07:53:47;6.10;99.90
2757;DHT22;1386;50.862;6.494;2024-01-25T07:56:13;6.10;99.90
2757;DHT22;1386;50.862;6.494;2024-01-25T07:58:40;6.10;99.90
2757;DHT22;1386;50.862;6.494;2024-01-25T08:01:08;6.10;99.90
2757;DHT22;1386;50.862;6.494;2024-01-25T08:03:36;6.10;99.90
2757;DHT22;1386;50.862;6.494;2024-01-25T08:06:03;6.10;99.90
2757;DHT22;1386;50.862;6.494;2024-01-25T08:08:30;6.20;99.90
2757;DHT22;1386;50.862;6.494;2024-01-25T08:10:57;6.20;99.90
2757;DHT22;1386;50.862;6.494;2024-01-25T08:13:24;6.20;99.90
2757;DHT22;1386;50.862;6.494;2024-01-25T08:15:53;6.20;99.90
2757;DHT22;1386;50.862;6.494;2024-01-25T08:18:22;6.30;99.90
2757;DHT22;1386;50.862;6.494;2024-01-25T08:20:49;6.30;99.90
2757;DHT22;1386;50.862;6.494;2024-01-25T08:23:16;6.40;99.90
2757;DHT22;1386;50.862;6.494;2024-01-25T08:25:44;6.40;99.90
2757;DHT22;1386;50.862;6.494;2024-01-25T08:28:11;6.50;99.90
2757;DHT22;1386;50.862;6.494;2024-01-25T08:30:38;6.50;99.90
2757;DHT22;1386;50.862;6.494;2024-01-25T08:33:05;6.60;99.90
2757;DHT22;1386;50.862;6.494;2024-01-25T08:35:33;6.60;99.90
2757;DHT22;1386;50.862;6.494;2024-01-25T08:38:00;6.70;99.90
2757;DHT22;1386;50.862;6.494;2024-01-25T08:40:28;6.70;99.90
2757;DHT22;1386;50.862;6.494;2024-01-25T08:42:55;6.80;99.90
2757;DHT22;1386;50.862;6.494;2024-01-25T08:45:22;6.90;99.90
2757;DHT22;1386;50.862;6.494;2024-01-25T09:07:59;7.30;99.90
2757;DHT22;1386;50.862;6.494;2024-01-25T09:10:34;7.40;99.90
2757;DHT22;1386;50.862;6.494;2024-01-25T09:16:51;7.50;99.90
2757;DHT22;1386;50.862;6.494;2024-01-25T09:26:22;7.70;99.90
2757;DHT22;1386;50.862;6.494;2024-01-25T09:28:49;7.70;99.90
2757;DHT22;1386;50.862;6.494;2024-01-25T09:31:17;7.80;99.90
2757;DHT22;1386;50.862;6.494;2024-01-25T09:33:44;7.80;99.90
2757;DHT22;1386;50.862;6.494;2024-01-25T09:36:11;7.90;99.90
2757;DHT22;1386;50.862;6.494;2024-01-25T09:38:38;7.90;99.90
2757;DHT22;1386;50.862;6.494;2024-01-25T09:41:04;8.00;99.90
2757;DHT22;1386;50.862;6.494;2024-01-25T09:50:13;8.10;99.90
2757;DHT22;1386;50.862;6.494;2024-01-25T09:52:43;8.10;99.90
2757;DHT22;1386;50.862;6.494;2024-01-25T09:55:12;8.10;99.90
2757;DHT22;1386;50.862;6.494;2024-01-25T09:57:41;8.20;99.90
2757;DHT22;1386;50.862;6.494;2024-01-25T10:00:13;8.30;99.90
2757;DHT22;1386;50.862;6.494;2024-01-25T10:02:41;8.30;99.90
2757;DHT22;1386;50.862;6.494;2024-01-25T10:05:08;8.50;99.90
2757;DHT22;1386;50.862;6.494;2024-01-25T10:07:43;8.50;99.90
2757;DHT22;1386;50.862;6.494;2024-01-25T10:10:13;8.60;99.90
2757;DHT22;1386;50.862;6.494;2024-01-25T10:12:43;8.70;99.90
2757;DHT22;1386;50.862;6.494;2024-01-25T10:15:09;8.80;99.90
2757;DHT22;1386;50.862;6.494;2024-01-25T10:17:36;8.80;99.90
2757;DHT22;1386;50.862;6.494;2024-01-25T10:20:08;8.90;99.90
2757;DHT22;1386;50.862;6.494;2024-01-25T10:22:49;9.00;99.90
2757;DHT22;1386;50.862;6.494;2024-01-25T10:25:15;9.10;99.90
2757;DHT22;1386;50.862;6.494;2024-01-25T10:27:43;9.20;99.90
2757;DHT22;1386;50.862;6.494;2024-01-25T10:30:11;9.20;99.90
2757;DHT22;1386;50.862;6.494;2024-01-25T10:33:06;9.20;99.90
2757;DHT22;1386;50.862;6.494;2024-01-25T10:53:54;9.40;99.90
2757;DHT22;1386;50.862;6.494;2024-01-25T10:57:10;9.50;99.90
2757;DHT22;1386;50.862;6.494;2024-01-25T11:00:11;9.60;99.90
2757;DHT22;1386;50.862;6.494;2024-01-25T11:02:55;9.80;99.90
2757;DHT22;1386;50.862;6.494;2024-01-25T11:36:34;10.50;99.90
2757;DHT22;1386;50.862;6.494;2024-01-25T11:39:01;10.60;99.90
2757;DHT22;1386;50.862;6.494;2024-01-25T11:41:30;10.60;99.90
2757;DHT22;1386;50.862;6.494;2024-01-25T11:43:57;10.70;99.90
2757;DHT22;1386;50.862;6.494;2024-01-25T11:46:25;10.70;99.90
2757;DHT22;1386;50.862;6.494;2024-01-25T11:48:52;10.90;99.90
2757;DHT22;1386;50.862;6.494;2024-01-25T11:51:19;10.90;99.90
2757;DHT22;1386;50.862;6.494;2024-01-25T11:53:47;11.00;99.90
2757;DHT22;1386;50.862;6.494;2024-01-25T11:56:17;11.00;99.90
2757;DHT22;1386;50.862;6.494;2024-01-25T11:58:46;11.00;99.90
2757;DHT22;1386;50.862;6.494;2024-01-25T12:01:13;10.90;99.90
2757;DHT22;1386;50.862;6.494;2024-01-25T12:03:41;10.90;99.90
2757;DHT22;1386;50.862;6.494;2024-01-25T12:06:08;10.90;99.90
2757;DHT22;1386;50.862;6.494;2024-01-25T12:08:35;11.00;99.90
2757;DHT22;1386;50.862;6.494;2024-01-25T12:11:06;11.00;99.90
2757;DHT22;1386;50.862;6.494;2024-01-25T12:13:34;11.00;99.90
2757;DHT22;1386;50.862;6.494;2024-01-25T12:16:02;11.10;99.90
2757;DHT22;1386;50.862;6.494;2024-01-25T12:18:30;11.00;99.90
2757;DHT22;1386;50.862;6.494;2024-01-25T12:20:58;11.10;99.90
2757;DHT22;1386;50.862;6.494;2024-01-25T12:23:32;11.10;99.90
2757;DHT22;1386;50.862;6.494;2024-01-25T12:26:00;11.20;99.90
2757;DHT22;1386;50.862;6.494;2024-01-25T12:28:30;11.30;99.90
2757;DHT22;1386;50.862;6.494;2024-01-25T12:30:58;11.30;99.90
2757;DHT22;1386;50.862;6.494;2024-01-25T12:33:26;11.30;99.90
2757;DHT22;1386;50.862;6.494;2024-01-25T12:35:53;11.40;99.90
2757;DHT22;1386;50.862;6.494;2024-01-25T12:38:20;11.40;99.90
2757;DHT22;1386;50.862;6.494;2024-01-25T12:40:48;11.40;99.90
2757;DHT22;1386;50.862;6.494;2024-01-25T12:43:17;11.40;99.90
2757;DHT22;1386;50.862;6.494;2024-01-25T12:45:48;11.50;99.90
2757;DHT22;1386;50.862;6.494;2024-01-25T12:48:15;11.50;99.90
2757;DHT22;1386;50.862;6.494;2024-01-25T12:50:42;11.60;99.90
2757;DHT22;1386;50.862;6.494;2024-01-25T12:53:10;11.60;99.90
2757;DHT22;1386;50.862;6.494;2024-01-25T12:55:38;11.60;99.90
2757;DHT22;1386;50.862;6.494;2024-01-25T12:58:05;11.60;99.90
2757;DHT22;1386;50.862;6.494;2024-01-25T13:00:32;11.70;99.90
2757;DHT22;1386;50.862;6.494;2024-01-25T13:03:00;11.70;99.90
2757;DHT22;1386;50.862;6.494;2024-01-25T13:05:29;11.70;99.90
2757;DHT22;1386;50.862;6.494;2024-01-25T13:07:59;11.60;99.90
2757;DHT22;1386;50.862;6.494;2024-01-25T13:10:26;11.60;99.90
2757;DHT22;1386;50.862;6.494;2024-01-25T13:12:53;11.60;99.90
2757;DHT22;1386;50.862;6.494;2024-01-25T13:15:20;11.60;99.90
2757;DHT22;1386;50.862;6.494;2024-01-25T13:17:47;11.50;99.90
2757;DHT22;1386;50.862;6.494;2024-01-25T13:20:15;11.50;99.90
2757;DHT22;1386;50.862;6.494;2024-01-25T13:22:42;11.50;99.90
2757;DHT22;1386;50.862;6.494;2024-01-25T13:25:09;11.40;99.90
2757;DHT22;1386;50.862;6.494;2024-01-25T13:27:37;11.40;99.90
2757;DHT22;1386;50.862;6.494;2024-01-25T13:30:05;11.30;99.90
2757;DHT22;1386;50.862;6.494;2024-01-25T13:32:32;11.30;99.90
2757;DHT22;1386;50.862;6.494;2024-01-25T13:34:59;11.30;99.90
2757;DHT22;1386;50.862;6.494;2024-01-25T13:37:27;11.30;99.90
2757;DHT22;1386;50.862;6.494;2024-01-25T13:39:56;11.30;99.90
2757;DHT22;1386;50.862;6.494;2024-01-25T13:42:22;11.30;99.90
2757;DHT22;1386;50.862;6.494;2024-01-25T13:44:49;11.30;99.90
2757;DHT22;1386;50.862;6.494;2024-01-25T13:47:16;11.30;99.90
2757;DHT22;1386;50.862;6.494;2024-01-25T13:49:43;11.40;99.90
2757;DHT22;1386;50.862;6.494;2024-01-25T13:52:17;11.40;99.90
2757;DHT22;1386;50.862;6.494;2024-01-25T13:54:46;11.40;99.90
2757;DHT22;1386;50.862;6.494;2024-01-25T13:57:14;11.40;99.90
2757;DHT22;1386;50.862;6.494;2024-01-25T13:59:41;11.40;99.90
2757;DHT22;1386;50.862;6.494;2024-01-25T14:02:08;11.40;99.90
2757;DHT22;1386;50.862;6.494;2024-01-25T14:04:35;11.40;99.90
2757;DHT22;1386;50.862;6.494;2024-01-25T14:07:02;11.40;99.90
2757;DHT22;1386;50.862;6.494;2024-01-25T14:09:29;11.50;99.90
2757;DHT22;1386;50.862;6.494;2024-01-25T14:11:58;11.40;99.90
2757;DHT22;1386;50.862;6.494;2024-01-25T14:14:25;11.40;99.90
2757;DHT22;1386;50.862;6.494;2024-01-25T14:16:51;11.40;99.90
2757;DHT22;1386;50.862;6.494;2024-01-25T14:19:18;11.40;99.90
2757;DHT22;1386;50.862;6.494;2024-01-25T14:21:46;11.40;99.90
2757;DHT22;1386;50.862;6.494;2024-01-25T14:24:14;11.30;99.90
2757;DHT22;1386;50.862;6.494;2024-01-25T14:26:41;11.30;99.90
2757;DHT22;1386;50.862;6.494;2024-01-25T14:29:12;11.30;99.90
2757;DHT22;1386;50.862;6.494;2024-01-25T14:31:42;11.30;99.90
2757;DHT22;1386;50.862;6.494;2024-01-25T14:34:09;11.20;99.90
2757;DHT22;1386;50.862;6.494;2024-01-25T14:36:37;11.30;99.90
2757;DHT22;1386;50.862;6.494;2024-01-25T14:39:21;11.20;99.90
2757;DHT22;1386;50.862;6.494;2024-01-25T14:41:48;11.20;99.90
2757;DHT22;1386;50.862;6.494;2024-01-25T14:44:17;11.20;99.90
2757;DHT22;1386;50.862;6.494;2024-01-25T14:46:44;11.20;99.90
2757;DHT22;1386;50.862;6.494;2024-01-25T14:49:11;11.20;99.90
2757;DHT22;1386;50.862;6.494;2024-01-25T14:51:38;11.20;99.90
2757;DHT22;1386;50.862;6.494;2024-01-25T14:54:05;11.20;99.90
2757;DHT22;1386;50.862;6.494;2024-01-25T14:56:32;11.20;99.90
2757;DHT22;1386;50.862;6.494;2024-01-25T14:58:59;11.20;99.90
2757;DHT22;1386;50.862;6.494;2024-01-25T15:01:27;11.10;99.90
2757;DHT22;1386;50.862;6.494;2024-01-25T15:03:55;11.10;99.90
2757;DHT22;1386;50.862;6.494;2024-01-25T15:06:23;11.00;99.90
2757;DHT22;1386;50.862;6.494;2024-01-25T15:08:50;10.90;99.90
2757;DHT22;1386;50.862;6.494;2024-01-25T15:11:17;10.90;99.90
2757;DHT22;1386;50.862;6.494;2024-01-25T15:13:44;10.90;99.90
2757;DHT22;1386;50.862;6.494;2024-01-25T15:16:11;10.90;99.90
2757;DHT22;1386;50.862;6.494;2024-01-25T15:18:39;10.90;99.90
2757;DHT22;1386;50.862;6.494;2024-01-25T15:21:06;10.80;99.90
2757;DHT22;1386;50.862;6.494;2024-01-25T15:23:33;10.80;99.90
2757;DHT22;1386;50.862;6.494;2024-01-25T15:26:02;10.80;99.90
2757;DHT22;1386;50.862;6.494;2024-01-25T15:28:29;10.70;99.90
2757;DHT22;1386;50.862;6.494;2024-01-25T15:30:56;10.80;99.90
2757;DHT22;1386;50.862;6.494;2024-01-25T15:33:23;10.70;99.90
2757;DHT22;1386;50.862;6.494;2024-01-25T15:35:51;10.70;99.90
2757;DHT22;1386;50.862;6.494;2024-01-25T15:38:21;10.70;99.90
2757;DHT22;1386;50.862;6.494;2024-01-25T15:40:51;10.60;99.90
2757;DHT22;1386;50.862;6.494;2024-01-25T15:43:24;10.60;99.90
2757;DHT22;1386;50.862;6.494;2024-01-25T15:45:50;10.60;99.90
2757;DHT22;1386;50.862;6.494;2024-01-25T15:48:17;10.60;99.90
2757;DHT22;1386;50.862;6.494;2024-01-25T15:50:45;10.60;99.90
2757;DHT22;1386;50.862;6.494;2024-01-25T15:53:13;10.60;99.90
2757;DHT22;1386;50.862;6.494;2024-01-25T15:55:41;10.60;99.90
2757;DHT22;1386;50.862;6.494;2024-01-25T15:58:07;10.60;99.90
2757;DHT22;1386;50.862;6.494;2024-01-25T16:00:34;10.60;99.90
2757;DHT22;1386;50.862;6.494;2024-01-25T16:03:01;10.50;99.90
2757;DHT22;1386;50.862;6.494;2024-01-25T16:05:29;10.50;99.90
2757;DHT22;1386;50.862;6.494;2024-01-25T16:07:56;10.50;99.90
2757;DHT22;1386;50.862;6.494;2024-01-25T16:10:25;10.50;99.90
2757;DHT22;1386;50.862;6.494;2024-01-25T16:12:52;10.50;99.90
2757;DHT22;1386;50.862;6.494;2024-01-25T17:27:51;9.60;99.90
2757;DHT22;1386;50.862;6.494;2024-01-25T17:30:18;9.60;99.90
2757;DHT22;1386;50.862;6.494;2024-01-25T17:32:46;9.60;99.90
2757;DHT22;1386;50.862;6.494;2024-01-25T17:35:13;9.60;99.90
2757;DHT22;1386;50.862;6.494;2024-01-25T17:37:40;9.50;99.90
2757;DHT22;1386;50.862;6.494;2024-01-25T17:40:08;9.50;99.90
2757;DHT22;1386;50.862;6.494;2024-01-25T17:42:35;9.50;99.90
2757;DHT22;1386;50.862;6.494;2024-01-25T17:45:05;9.50;99.90
2757;DHT22;1386;50.862;6.494;2024-01-25T17:47:32;9.50;99.90
2757;DHT22;1386;50.862;6.494;2024-01-25T17:49:59;9.50;99.90
2757;DHT22;1386;50.862;6.494;2024-01-25T17:52:26;9.50;99.90
2757;DHT22;1386;50.862;6.494;2024-01-25T17:54:53;9.50;99.90
2757;DHT22;1386;50.862;6.494;2024-01-25T17:57:20;9.50;99.90
2757;DHT22;1386;50.862;6.494;2024-01-25T17:59:47;9.50;99.90
2757;DHT22;1386;50.862;6.494;2024-01-25T18:02:16;9.50;99.90
2757;DHT22;1386;50.862;6.494;2024-01-25T18:04:43;9.50;99.90
2757;DHT22;1386;50.862;6.494;2024-01-25T18:07:10;9.50;99.90
2757;DHT22;1386;50.862;6.494;2024-01-25T18:09:37;9.50;99.90
2757;DHT22;1386;50.862;6.494;2024-01-25T18:12:04;9.50;99.90
2757;DHT22;1386;50.862;6.494;2024-01-25T18:14:31;9.50;99.90
2757;DHT22;1386;50.862;6.494;2024-01-25T18:16:58;9.50;99.90
2757;DHT22;1386;50.862;6.494;2024-01-25T18:19:27;9.50;99.90
2757;DHT22;1386;50.862;6.494;2024-01-25T18:21:57;9.50;99.90
2757;DHT22;1386;50.862;6.494;2024-01-25T18:24:24;9.50;99.90
2757;DHT22;1386;50.862;6.494;2024-01-25T18:26:51;9.50;99.90
2757;DHT22;1386;50.862;6.494;2024-01-25T18:29:18;9.50;99.90
2757;DHT22;1386;50.862;6.494;2024-01-25T18:31:46;9.50;99.90
2757;DHT22;1386;50.862;6.494;2024-01-25T18:34:13;9.60;99.90
2757;DHT22;1386;50.862;6.494;2024-01-25T18:36:42;9.60;99.90
2757;DHT22;1386;50.862;6.494;2024-01-25T18:39:09;9.60;99.90
2757;DHT22;1386;50.862;6.494;2024-01-25T18:41:37;9.60;99.90
2757;DHT22;1386;50.862;6.494;2024-01-25T18:44:04;9.60;99.90
2757;DHT22;1386;50.862;6.494;2024-01-25T18:46:31;9.60;99.90
2757;DHT22;1386;50.862;6.494;2024-01-25T18:49:00;9.60;99.90
2757;DHT22;1386;50.862;6.494;2024-01-25T18:51:27;9.70;99.90
2757;DHT22;1386;50.862;6.494;2024-01-25T18:53:56;9.70;99.90
2757;DHT22;1386;50.862;6.494;2024-01-25T18:56:24;9.70;99.90
2757;DHT22;1386;50.862;6.494;2024-01-25T18:58:51;9.70;99.90
2757;DHT22;1386;50.862;6.494;2024-01-25T19:01:20;9.70;99.90
2757;DHT22;1386;50.862;6.494;2024-01-25T19:03:48;9.70;99.90
2757;DHT22;1386;50.862;6.494;2024-01-25T19:06:15;9.70;99.90
2757;DHT22;1386;50.862;6.494;2024-01-25T19:08:43;9.70;99.90
2757;DHT22;1386;50.862;6.494;2024-01-25T19:11:11;9.70;99.90
2757;DHT22;1386;50.862;6.494;2024-01-25T19:13:38;9.70;99.90
2757;DHT22;1386;50.862;6.494;2024-01-25T19:16:06;9.70;99.90